createdAt,value
2022-09-17T00:00:49.651Z,7.27
2022-09-17T00:03:17.130Z,9.70
2022-09-17T00:05:44.309Z,9.93
2022-09-17T00:08:13.854Z,7.43
2022-09-17T00:10:42.780Z,10.40
2022-09-17T00:13:10.204Z,8.33
2022-09-17T00:15:44.672Z,10.13
2022-09-17T00:18:12.532Z,9.00
2022-09-17T00:20:40.367Z,8.30
2022-09-17T00:23:08.541Z,7.50
2022-09-17T00:25:38.250Z,8.93
2022-09-17T00:28:05.314Z,10.53
2022-09-17T00:30:32.484Z,7.53
2022-09-17T00:32:59.570Z,11.23
2022-09-17T00:35:26.751Z,7.80
2022-09-17T00:37:53.879Z,8.53
2022-09-17T00:40:21.784Z,6.97
2022-09-17T00:42:49.024Z,11.17
2022-09-17T00:45:16.179Z,8.77
2022-09-17T00:47:46.247Z,8.10
2022-09-17T00:50:16.299Z,7.33
2022-09-17T00:52:45.442Z,6.50
2022-09-17T00:55:21.542Z,9.00
2022-09-17T00:57:49.841Z,8.10
2022-09-17T01:00:17.499Z,10.73
2022-09-17T01:02:44.933Z,10.33
2022-09-17T01:05:13.116Z,10.07
2022-09-17T01:07:40.198Z,15.13
2022-09-17T01:13:36.057Z,8.20
2022-09-17T01:16:16.529Z,10.50
2022-09-17T01:18:51.192Z,10.73
2022-09-17T01:21:32.174Z,10.50
2022-09-17T01:24:06.726Z,10.80
2022-09-17T01:26:37.240Z,13.63
2022-09-17T01:29:12.433Z,6.47
2022-09-17T01:31:54.284Z,9.97
2022-09-17T01:34:21.465Z,11.33
2022-09-17T01:36:54.429Z,12.43
2022-09-17T01:39:29.950Z,10.40
2022-09-17T01:42:02.963Z,10.37
2022-09-17T01:44:48.052Z,12.20
2022-09-17T01:47:20.758Z,10.33
2022-09-17T01:49:49.066Z,13.77
2022-09-17T01:52:16.482Z,14.30
2022-09-17T01:54:52.053Z,11.27
2022-09-17T01:57:27.125Z,10.60
2022-09-17T02:00:03.033Z,14.20
2022-09-17T02:02:42.551Z,13.70
2022-09-17T02:05:12.213Z,9.73
2022-09-17T02:07:41.285Z,9.00
2022-09-17T02:10:14.321Z,9.87
2022-09-17T02:12:44.573Z,9.50
2022-09-17T02:15:15.046Z,7.77
2022-09-17T02:17:45.668Z,10.17
2022-09-17T02:20:13.794Z,9.47
2022-09-17T02:22:48.712Z,13.93
2022-09-17T02:25:21.000Z,15.87
2022-09-17T02:27:48.086Z,9.97
2022-09-17T02:30:15.441Z,10.60
2022-09-17T02:32:42.671Z,9.87
2022-09-17T02:35:15.970Z,10.70
2022-09-17T02:37:43.543Z,8.37
2022-09-17T02:40:14.778Z,10.47
2022-09-17T02:42:44.931Z,7.80
2022-09-17T02:45:27.063Z,10.70
2022-09-17T02:48:06.056Z,11.63
2022-09-17T02:50:56.968Z,11.03
2022-09-17T02:53:44.289Z,12.20
2022-09-17T02:56:14.490Z,8.67
2022-09-17T02:58:46.512Z,10.70
2022-09-17T03:01:17.249Z,11.70
2022-09-17T03:03:45.865Z,15.03
2022-09-17T03:06:13.391Z,13.20
2022-09-17T03:08:41.669Z,12.00
2022-09-17T03:11:09.409Z,8.07
2022-09-17T03:13:37.169Z,11.20
2022-09-17T03:16:04.588Z,11.00
2022-09-17T03:18:31.924Z,16.83
2022-09-17T03:20:59.267Z,9.10
2022-09-17T03:23:27.935Z,11.70
2022-09-17T03:25:55.350Z,12.93
2022-09-17T03:28:22.562Z,12.67
2022-09-17T03:30:49.703Z,10.73
2022-09-17T03:33:17.333Z,10.90
2022-09-17T03:35:44.696Z,12.47
2022-09-17T03:38:11.946Z,7.60
2022-09-17T03:40:39.921Z,14.73
2022-09-17T03:43:07.710Z,16.77
2022-09-17T03:45:34.909Z,15.27
2022-09-17T03:48:02.097Z,13.07
2022-09-17T03:50:29.243Z,10.27
2022-09-17T03:52:56.356Z,14.47
2022-09-17T03:55:23.427Z,10.53
2022-09-17T03:57:51.277Z,10.53
2022-09-17T04:00:18.432Z,12.83
2022-09-17T04:02:45.585Z,11.13
2022-09-17T04:05:12.793Z,12.43
2022-09-17T04:07:41.209Z,19.20
2022-09-17T04:10:08.950Z,16.50
2022-09-17T04:12:36.042Z,16.23
2022-09-17T04:15:03.148Z,11.97
2022-09-17T04:17:30.252Z,14.97
2022-09-17T04:19:57.613Z,17.17
2022-09-17T04:22:25.061Z,13.20
2022-09-17T04:24:52.159Z,13.03
2022-09-17T04:27:19.360Z,19.73
2022-09-17T04:29:46.450Z,15.43
2022-09-17T04:32:13.590Z,14.27
2022-09-17T04:34:40.706Z,15.43
2022-09-17T04:37:07.803Z,16.87
2022-09-17T04:39:35.392Z,13.80
2022-09-17T04:42:02.552Z,11.47
2022-09-17T04:44:29.625Z,18.27
2022-09-17T04:46:56.835Z,16.30
2022-09-17T04:49:24.065Z,19.47
2022-09-17T04:51:51.188Z,19.53
2022-09-17T04:54:18.781Z,13.67
2022-09-17T04:56:45.933Z,19.73
2022-09-17T04:59:13.044Z,20.63
2022-09-17T05:01:40.208Z,15.10
2022-09-17T05:04:07.516Z,14.93
2022-09-17T05:06:34.626Z,16.30
2022-09-17T05:09:02.152Z,14.53
2022-09-17T05:11:29.516Z,12.97
2022-09-17T05:13:56.765Z,13.10
2022-09-17T05:16:24.073Z,15.60
2022-09-17T05:18:51.739Z,13.37
2022-09-17T05:21:21.845Z,11.43
2022-09-17T05:23:48.944Z,14.93
2022-09-17T05:26:16.093Z,13.57
2022-09-17T05:28:43.311Z,13.93
2022-09-17T05:31:10.499Z,14.60
2022-09-17T05:33:37.661Z,21.63
2022-09-17T05:36:05.020Z,10.17
2022-09-17T05:38:32.194Z,13.70
2022-09-17T05:40:59.274Z,15.10
2022-09-17T05:43:26.449Z,12.97
2022-09-17T05:45:54.660Z,10.50
2022-09-17T05:48:21.831Z,12.43
2022-09-17T05:50:48.963Z,14.37
2022-09-17T05:53:16.082Z,16.87
2022-09-17T05:55:43.243Z,9.73
2022-09-17T05:58:14.791Z,13.77
2022-09-17T06:00:42.622Z,12.70
2022-09-17T06:03:11.803Z,16.00
2022-09-17T06:05:38.954Z,11.97
2022-09-17T06:08:06.147Z,13.47
2022-09-17T06:10:33.329Z,15.73
2022-09-17T06:13:00.522Z,11.60
2022-09-17T06:15:28.723Z,12.03
2022-09-17T06:17:55.893Z,12.23
2022-09-17T06:20:23.010Z,11.57
2022-09-17T06:22:50.187Z,14.50
2022-09-17T06:25:17.305Z,15.63
2022-09-17T06:27:44.432Z,11.43
2022-09-17T06:30:11.707Z,11.03
2022-09-17T06:32:38.800Z,10.43
2022-09-17T06:35:06.327Z,12.27
2022-09-17T06:37:33.862Z,10.40
2022-09-17T06:40:01.079Z,10.23
2022-09-17T06:42:31.266Z,12.17
2022-09-17T06:45:00.386Z,10.13
2022-09-17T06:47:29.140Z,14.47
2022-09-17T06:49:57.173Z,9.60
2022-09-17T06:52:24.313Z,11.10
2022-09-17T06:54:51.414Z,11.07
2022-09-17T06:57:18.568Z,13.37
2022-09-17T06:59:45.669Z,14.00
2022-09-17T07:02:12.900Z,11.47
2022-09-17T07:04:40.082Z,9.67
2022-09-17T07:07:07.228Z,8.23
2022-09-17T07:09:34.301Z,11.87
2022-09-17T07:12:01.431Z,11.80
2022-09-17T07:14:28.533Z,11.13
2022-09-17T07:16:55.839Z,13.03
2022-09-17T07:19:22.918Z,10.83
2022-09-17T07:21:50.115Z,11.40
2022-09-17T07:24:17.309Z,12.77
2022-09-17T07:26:44.420Z,14.73
2022-09-17T07:29:12.520Z,15.27
2022-09-17T07:31:39.646Z,13.40
2022-09-17T07:34:06.836Z,9.07
2022-09-17T07:36:33.984Z,12.97
2022-09-17T07:39:01.116Z,14.13
2022-09-17T07:41:28.223Z,10.23
2022-09-17T07:43:55.491Z,13.40
2022-09-17T07:46:22.996Z,12.00
2022-09-17T07:48:50.616Z,12.53
2022-09-17T07:51:18.582Z,9.97
2022-09-17T07:53:46.537Z,13.50
2022-09-17T07:56:13.758Z,14.27
2022-09-17T07:58:41.060Z,14.60
2022-09-17T08:01:09.435Z,11.87
2022-09-17T08:03:36.801Z,10.93
2022-09-17T08:06:08.436Z,11.50
2022-09-17T08:08:36.106Z,14.07
2022-09-17T08:11:07.785Z,16.20
2022-09-17T08:13:35.434Z,7.80
2022-09-17T08:16:03.493Z,10.77
2022-09-17T08:18:30.731Z,10.47
2022-09-17T08:21:01.571Z,9.70
2022-09-17T08:23:29.276Z,10.03
2022-09-17T08:25:57.161Z,13.57
2022-09-17T08:28:25.473Z,12.27
2022-09-17T08:30:53.116Z,11.73
2022-09-17T08:33:20.272Z,13.67
2022-09-17T08:36:06.211Z,15.73
2022-09-17T08:38:37.813Z,15.03
2022-09-17T08:41:14.499Z,9.87
2022-09-17T08:43:41.595Z,15.20
2022-09-17T08:46:10.663Z,9.37
2022-09-17T08:48:41.985Z,12.10
2022-09-17T08:51:15.509Z,12.27
2022-09-17T08:53:51.959Z,11.05
2022-09-17T08:56:19.874Z,11.93
2022-09-17T08:58:52.952Z,9.90
2022-09-17T09:01:28.996Z,13.25
2022-09-17T09:04:00.585Z,11.23
2022-09-17T09:06:32.123Z,11.98
2022-09-17T09:09:03.858Z,10.95
2022-09-17T09:11:31.900Z,10.00
2022-09-17T09:13:58.999Z,12.23
2022-09-17T09:16:27.297Z,11.15
2022-09-17T09:19:00.487Z,10.13
2022-09-17T09:21:28.883Z,12.18
2022-09-17T09:23:59.095Z,10.40
2022-09-17T09:26:38.536Z,12.90
2022-09-17T09:29:10.129Z,9.60
2022-09-17T09:31:58.855Z,13.90
2022-09-17T09:34:27.339Z,14.25
2022-09-17T09:36:59.739Z,14.03
2022-09-17T09:39:33.634Z,11.87
2022-09-17T09:42:15.722Z,12.93
2022-09-17T09:44:43.133Z,11.63
2022-09-17T09:47:42.807Z,10.87
2022-09-17T09:50:43.197Z,12.43
2022-09-17T09:53:23.227Z,13.63
2022-09-17T09:55:50.302Z,13.27
2022-09-17T09:58:17.425Z,12.20
2022-09-17T10:00:44.585Z,10.07
2022-09-17T10:03:16.317Z,12.73
2022-09-17T10:06:12.543Z,10.60
2022-09-17T10:08:40.927Z,11.20
2022-09-17T10:11:13.799Z,9.07
2022-09-17T10:13:41.174Z,14.10
2022-09-17T10:16:21.774Z,9.67
2022-09-17T10:18:49.689Z,6.87
2022-09-17T10:21:36.402Z,6.23
2022-09-17T10:24:04.856Z,7.57
2022-09-17T10:26:36.193Z,8.97
2022-09-17T10:29:04.337Z,12.18
2022-09-17T10:31:50.162Z,8.55
2022-09-17T10:34:21.370Z,7.97
2022-09-17T10:36:48.823Z,8.90
2022-09-17T10:39:20.305Z,7.15
2022-09-17T10:42:00.902Z,7.43
2022-09-17T10:44:29.177Z,8.60
2022-09-17T10:47:02.233Z,9.88
2022-09-17T10:49:32.435Z,9.10
2022-09-17T10:52:06.719Z,7.30
2022-09-17T10:54:52.190Z,8.63
2022-09-17T10:57:26.643Z,8.50
2022-09-17T11:00:15.941Z,12.15
2022-09-17T11:02:55.322Z,7.95
2022-09-17T11:05:34.651Z,8.65
2022-09-17T11:08:23.281Z,9.73
2022-09-17T11:10:56.299Z,7.70
2022-09-17T11:13:29.279Z,9.50
2022-09-17T11:15:56.451Z,7.03
2022-09-17T11:18:23.533Z,9.87
2022-09-17T11:21:02.498Z,9.93
2022-09-17T11:23:44.606Z,10.20
2022-09-17T11:26:31.306Z,9.45
2022-09-17T11:29:04.382Z,7.85
2022-09-17T11:31:38.203Z,8.77
2022-09-17T11:34:11.462Z,9.27
2022-09-17T11:36:46.854Z,7.50
2022-09-17T11:39:24.113Z,8.45
2022-09-17T11:41:52.319Z,9.30
2022-09-17T11:44:25.870Z,8.80
2022-09-17T11:47:06.134Z,7.45
2022-09-17T11:49:36.024Z,6.03
2022-09-17T11:52:06.492Z,7.13
2022-09-17T11:54:56.709Z,8.63
2022-09-17T11:57:27.697Z,8.57
2022-09-17T11:59:54.749Z,9.83
2022-09-17T12:02:28.689Z,7.37
2022-09-17T12:05:04.844Z,8.00
2022-09-17T12:07:50.731Z,11.33
2022-09-17T12:10:36.485Z,7.10
2022-09-17T12:13:08.380Z,8.53
2022-09-17T12:15:36.709Z,7.83
2022-09-17T12:18:31.228Z,8.50
2022-09-17T12:21:01.057Z,9.70
2022-09-17T12:23:41.750Z,10.40
2022-09-17T12:26:08.846Z,9.70
2022-09-17T12:28:44.780Z,9.20
2022-09-17T12:31:18.743Z,9.00
2022-09-17T12:34:15.263Z,7.07
2022-09-17T12:36:53.915Z,8.88
2022-09-17T12:39:29.960Z,6.13
2022-09-17T12:42:03.945Z,7.57
2022-09-17T12:44:39.877Z,9.35
2022-09-17T12:47:12.916Z,5.97
2022-09-17T12:49:40.040Z,5.63
2022-09-17T12:52:10.147Z,4.45
2022-09-17T12:54:45.828Z,6.45
2022-09-17T12:57:31.851Z,8.65
2022-09-17T13:00:06.948Z,6.35
2022-09-17T13:02:44.037Z,9.70
2022-09-17T13:05:35.852Z,9.80
2022-09-17T13:08:23.869Z,6.75
2022-09-17T13:10:57.171Z,6.93
2022-09-17T13:13:24.295Z,8.80
2022-09-17T13:16:14.311Z,9.75
2022-09-17T13:18:59.303Z,6.65
2022-09-17T13:21:34.238Z,8.57
2022-09-17T13:24:01.577Z,5.72
2022-09-17T13:26:36.785Z,5.63
2022-09-17T13:29:08.251Z,7.78
2022-09-17T13:31:35.424Z,8.75
2022-09-17T13:34:03.275Z,11.43
2022-09-17T13:36:36.335Z,8.40
2022-09-17T13:39:04.413Z,10.65
2022-09-17T13:41:33.717Z,9.33
2022-09-17T13:44:02.966Z,5.40
2022-09-17T13:46:32.654Z,5.67
2022-09-17T13:49:01.973Z,8.17
2022-09-17T13:51:34.651Z,5.97
2022-09-17T13:54:07.427Z,6.35
2022-09-17T13:56:38.756Z,6.03
2022-09-17T13:59:10.647Z,7.43
2022-09-17T14:01:49.720Z,6.03
2022-09-17T14:04:35.340Z,6.65
2022-09-17T14:07:23.497Z,6.07
2022-09-17T14:10:09.490Z,4.45
2022-09-17T14:12:47.636Z,9.25
2022-09-17T14:15:33.535Z,6.40
2022-09-17T14:18:02.589Z,5.22
2022-09-17T14:20:30.737Z,6.32
2022-09-17T14:23:04.027Z,5.30
2022-09-17T14:25:39.169Z,4.35
2022-09-17T14:28:14.639Z,5.28
2022-09-17T14:30:44.194Z,7.95
2022-09-17T14:33:18.837Z,10.52
2022-09-17T14:35:50.423Z,9.70
2022-09-17T14:38:21.187Z,4.40
2022-09-17T14:40:50.528Z,8.90
2022-09-17T14:43:22.852Z,8.63
2022-09-17T14:45:51.491Z,6.85
2022-09-17T14:48:22.506Z,5.47
2022-09-17T14:50:49.660Z,7.53
2022-09-17T14:53:18.345Z,8.65
2022-09-17T14:55:47.482Z,10.00
2022-09-17T14:58:44.075Z,6.65
2022-09-17T15:01:40.364Z,7.35
2022-09-17T15:04:13.243Z,8.23
2022-09-17T15:06:41.123Z,8.55
2022-09-17T15:09:18.733Z,4.32
2022-09-17T15:11:48.073Z,6.65
2022-09-17T15:14:18.234Z,5.37
2022-09-17T15:16:49.731Z,8.18
2022-09-17T15:19:21.640Z,3.43
2022-09-17T15:21:50.025Z,5.97
2022-09-17T15:24:23.362Z,6.83
2022-09-17T15:26:52.573Z,5.97
2022-09-17T15:29:23.916Z,12.13
2022-09-17T15:31:51.110Z,6.57
2022-09-17T15:34:18.294Z,8.10
2022-09-17T15:37:05.218Z,6.70
2022-09-17T15:39:38.657Z,5.57
2022-09-17T15:42:05.805Z,5.40
2022-09-17T15:44:33.272Z,5.33
2022-09-17T15:47:19.115Z,3.37
2022-09-17T15:50:04.604Z,5.17
2022-09-17T15:52:35.075Z,5.60
2022-09-17T15:55:02.294Z,3.87
2022-09-17T15:57:30.365Z,4.87
2022-09-17T16:00:05.979Z,5.20
2022-09-17T16:02:33.472Z,3.93
2022-09-17T16:05:19.174Z,6.50
2022-09-17T16:07:46.554Z,4.63
2022-09-17T16:10:15.241Z,6.67
2022-09-17T16:12:42.737Z,3.47
2022-09-17T16:15:09.958Z,4.40
2022-09-17T16:17:37.100Z,1.23
2022-09-17T16:20:09.475Z,2.60
2022-09-17T16:22:36.602Z,3.33
2022-09-17T16:25:03.820Z,2.77
2022-09-17T16:27:33.675Z,6.70
2022-09-17T16:30:05.550Z,4.77
2022-09-17T16:32:32.689Z,5.20
2022-09-17T16:34:59.934Z,3.97
2022-09-17T16:37:27.336Z,4.57
2022-09-17T16:39:54.761Z,6.17
2022-09-17T16:42:21.899Z,2.13
2022-09-17T16:44:49.037Z,3.07
2022-09-17T16:47:16.153Z,4.20
2022-09-17T16:49:43.226Z,3.03
2022-09-17T16:52:10.325Z,6.00
2022-09-17T16:54:37.448Z,4.67
2022-09-17T16:57:04.787Z,6.67
2022-09-17T16:59:31.924Z,5.90
2022-09-17T17:01:59.123Z,2.70
2022-09-17T17:04:26.245Z,6.63
2022-09-17T17:06:53.323Z,3.10
2022-09-17T17:09:20.482Z,3.30
2022-09-17T17:11:47.588Z,4.83
2022-09-17T17:14:15.116Z,4.43
2022-09-17T17:16:43.648Z,4.50
2022-09-17T17:19:11.011Z,5.43
2022-09-17T17:21:38.635Z,3.30
2022-09-17T17:24:06.933Z,8.33
2022-09-17T17:26:34.601Z,4.57
2022-09-17T17:29:02.915Z,4.30
2022-09-17T17:31:30.142Z,4.40
2022-09-17T17:33:58.207Z,3.73
2022-09-17T17:36:25.306Z,5.47
2022-09-17T17:38:56.544Z,5.60
2022-09-17T17:41:25.933Z,5.97
2022-09-17T17:43:53.746Z,7.17
2022-09-17T17:46:20.952Z,5.73
2022-09-17T17:48:48.183Z,5.53
2022-09-17T17:51:18.090Z,5.33
2022-09-17T17:53:45.743Z,7.77
2022-09-17T17:56:13.112Z,6.53
2022-09-17T17:58:40.833Z,8.53
2022-09-17T18:01:16.336Z,6.17
2022-09-17T18:03:43.791Z,5.53
2022-09-17T18:06:11.334Z,5.83
2022-09-17T18:08:39.034Z,9.23
2022-09-17T18:11:08.109Z,7.40
2022-09-17T18:13:39.327Z,6.97
2022-09-17T18:16:07.629Z,6.17
2022-09-17T18:18:35.825Z,5.03
2022-09-17T18:21:05.626Z,7.37
2022-09-17T18:23:34.130Z,7.90
2022-09-17T18:26:02.103Z,6.43
2022-09-17T18:28:30.458Z,9.93
2022-09-17T18:30:58.450Z,5.27
2022-09-17T18:33:26.830Z,3.73
2022-09-17T18:35:57.139Z,8.13
2022-09-17T18:38:24.530Z,6.97
2022-09-17T18:40:51.981Z,3.70
2022-09-17T18:43:19.212Z,2.17
2022-09-17T18:45:55.958Z,5.57
2022-09-17T18:48:23.715Z,5.13
2022-09-17T18:51:01.492Z,5.20
2022-09-17T18:53:29.400Z,6.10
2022-09-17T18:55:58.376Z,5.77
2022-09-17T18:58:25.537Z,4.87
2022-09-17T19:00:52.657Z,3.90
2022-09-17T19:03:19.763Z,5.77
2022-09-17T19:05:46.843Z,6.93
2022-09-17T19:08:14.558Z,7.73
2022-09-17T19:10:41.697Z,6.00
2022-09-17T19:13:08.822Z,7.50
2022-09-17T19:15:36.010Z,4.40
2022-09-17T19:18:03.164Z,4.97
2022-09-17T19:20:35.671Z,4.63
2022-09-17T19:23:02.813Z,7.37
2022-09-17T19:25:30.160Z,4.43
2022-09-17T19:27:57.786Z,2.97
2022-09-17T19:30:25.131Z,5.80
2022-09-17T19:32:52.297Z,5.13
2022-09-17T19:35:19.399Z,7.37
2022-09-17T19:37:46.536Z,4.20
2022-09-17T19:40:13.717Z,3.80
2022-09-17T19:42:41.079Z,4.67
2022-09-17T19:45:08.466Z,5.00
2022-09-17T19:47:35.533Z,4.57
2022-09-17T19:50:02.696Z,3.63
2022-09-17T19:52:29.836Z,4.77
2022-09-17T19:54:56.947Z,6.53
2022-09-17T19:57:24.150Z,3.30
2022-09-17T19:59:51.303Z,5.87
2022-09-17T20:02:18.437Z,5.67
2022-09-17T20:04:46.919Z,4.10
2022-09-17T20:07:14.055Z,8.83
2022-09-17T20:09:41.198Z,7.20
2022-09-17T20:12:08.343Z,5.77
2022-09-17T20:14:35.484Z,5.23
2022-09-17T20:17:02.616Z,6.27
2022-09-17T20:19:29.986Z,4.60
2022-09-17T20:21:57.090Z,5.50
2022-09-17T20:24:24.208Z,3.90
2022-09-17T20:26:51.341Z,5.87
2022-09-17T20:29:18.447Z,4.67
2022-09-17T20:31:45.986Z,6.60
2022-09-17T20:34:13.204Z,5.70
2022-09-17T20:36:40.354Z,6.00
2022-09-17T20:39:16.529Z,5.17
2022-09-17T20:41:49.686Z,4.40
2022-09-17T20:44:17.829Z,4.37
2022-09-17T20:46:44.973Z,8.77
2022-09-17T20:49:12.062Z,9.37
2022-09-17T20:51:39.213Z,6.37
2022-09-17T20:54:07.561Z,3.47
2022-09-17T20:56:35.032Z,6.97
2022-09-17T20:59:13.279Z,5.87
2022-09-17T21:01:41.150Z,5.23
2022-09-17T21:04:09.055Z,6.57
2022-09-17T21:06:37.900Z,5.17
2022-09-17T21:09:06.258Z,8.27
2022-09-17T21:11:34.370Z,10.27
2022-09-17T21:14:01.740Z,6.20
2022-09-17T21:16:29.222Z,5.10
2022-09-17T21:19:01.496Z,5.30
2022-09-17T21:21:28.998Z,6.47
2022-09-17T21:24:00.961Z,7.47
2022-09-17T21:26:28.491Z,4.73
2022-09-17T21:28:56.428Z,5.17
2022-09-17T21:31:32.029Z,11.27
2022-09-17T21:34:01.157Z,9.57
2022-09-17T21:36:29.219Z,6.60
2022-09-17T21:39:00.334Z,8.47
2022-09-17T21:41:28.046Z,7.30
2022-09-17T21:43:55.459Z,10.17
2022-09-17T21:46:23.908Z,5.07
2022-09-17T21:48:52.084Z,8.97
2022-09-17T21:51:23.428Z,9.43
2022-09-17T21:53:51.681Z,6.13
2022-09-17T21:56:19.627Z,16.77
2022-09-17T21:58:47.445Z,11.93
2022-09-17T22:01:16.093Z,9.70
2022-09-17T22:03:44.220Z,8.13
2022-09-17T22:06:16.902Z,6.10
2022-09-17T22:08:44.399Z,11.27
2022-09-17T22:11:11.532Z,7.33
2022-09-17T22:13:38.867Z,11.73
2022-09-17T22:16:07.111Z,11.87
2022-09-17T22:18:35.530Z,7.33
2022-09-17T22:21:12.279Z,10.13
2022-09-17T22:23:39.370Z,8.73
2022-09-17T22:26:06.985Z,9.07
2022-09-17T22:28:34.492Z,9.83
2022-09-17T22:31:02.462Z,9.87
2022-09-17T22:33:36.659Z,11.30
2022-09-17T22:36:08.505Z,9.13
2022-09-17T22:38:36.201Z,8.23
2022-09-17T22:41:07.813Z,10.80
2022-09-17T22:43:35.427Z,9.10
2022-09-17T22:46:10.423Z,12.23
2022-09-17T22:48:37.638Z,9.63
2022-09-17T22:51:04.921Z,6.30
2022-09-17T22:53:32.037Z,10.20
2022-09-17T22:56:01.015Z,9.40
2022-09-17T22:58:28.389Z,9.63
2022-09-17T23:00:55.794Z,8.80
2022-09-17T23:03:29.449Z,10.47
2022-09-17T23:06:03.658Z,10.40
2022-09-17T23:08:30.795Z,9.23
2022-09-17T23:10:57.863Z,6.80
2022-09-17T23:13:24.937Z,9.30
2022-09-17T23:15:52.563Z,8.03
2022-09-17T23:18:19.828Z,9.60
2022-09-17T23:20:57.034Z,8.17
2022-09-17T23:23:24.766Z,13.77
2022-09-17T23:25:51.958Z,10.00
2022-09-17T23:28:19.052Z,9.03
2022-09-17T23:30:46.155Z,13.77
2022-09-17T23:33:14.485Z,11.33
2022-09-17T23:35:41.619Z,8.30
2022-09-17T23:38:08.873Z,8.67
2022-09-17T23:40:36.034Z,14.10
2022-09-17T23:43:03.197Z,8.80
2022-09-17T23:45:30.292Z,9.47
2022-09-17T23:47:57.358Z,9.20
2022-09-17T23:50:25.768Z,10.07
2022-09-17T23:52:52.883Z,9.70
2022-09-17T23:55:20.079Z,11.93
2022-09-17T23:57:47.188Z,10.03
